sensor_id;sensor_type;location;lat;lon;timestamp;pressure;altitude;pressure_sealevel;temperature;humidity
10921;BME280;5513;50.580;8.818;2023-02-01T00:01:56;99478.88;;;4.73;100.00
10921;BME280;5513;50.580;8.818;2023-02-01T00:04:25;99472.88;;;4.70;100.00
10921;BME280;5513;50.580;8.818;2023-02-01T00:06:53;99476.03;;;4.79;100.00
10921;BME280;5513;50.580;8.818;2023-02-01T00:09:22;99480.63;;;4.73;100.00
10921;BME280;5513;50.580;8.818;2023-02-01T00:11:53;99477.25;;;4.69;100.00
10921;BME280;5513;50.580;8.818;2023-02-01T00:14:27;99468.66;;;4.66;100.00
10921;BME280;5513;50.580;8.818;2023-02-01T00:16:56;99479.63;;;4.77;100.00
10921;BME280;5513;50.580;8.818;2023-02-01T00:19:24;99468.84;;;4.59;100.00
10921;BME280;5513;50.580;8.818;2023-02-01T00:21:53;99471.28;;;4.66;100.00
10921;BME280;5513;50.580;8.818;2023-02-01T00:24:22;99447.75;;;4.63;100.00
10921;BME280;5513;50.580;8.818;2023-02-01T00:26:52;99453.66;;;4.69;100.00
10921;BME280;5513;50.580;8.818;2023-02-01T00:29:21;99456.47;;;4.63;100.00
10921;BME280;5513;50.580;8.818;2023-02-01T00:31:50;99457.50;;;4.59;100.00
10921;BME280;5513;50.580;8.818;2023-02-01T00:34:21;99462.38;;;4.70;100.00
10921;BME280;5513;50.580;8.818;2023-02-01T00:36:49;99470.66;;;4.82;100.00
10921;BME280;5513;50.580;8.818;2023-02-01T00:39:17;99472.72;;;4.74;100.00
10921;BME280;5513;50.580;8.818;2023-02-01T00:41:48;99474.50;;;4.74;100.00
10921;BME280;5513;50.580;8.818;2023-02-01T00:44:19;99470.84;;;4.78;100.00
10921;BME280;5513;50.580;8.818;2023-02-01T00:46:47;99475.75;;;4.87;100.00
10921;BME280;5513;50.580;8.818;2023-02-01T00:49:15;99459.16;;;4.86;100.00
10921;BME280;5513;50.580;8.818;2023-02-01T00:51:45;99465.41;;;4.82;100.00
10921;BME280;5513;50.580;8.818;2023-02-01T00:54:14;99453.25;;;4.80;100.00
10921;BME280;5513;50.580;8.818;2023-02-01T00:56:42;99456.66;;;4.83;100.00
10921;BME280;5513;50.580;8.818;2023-02-01T00:59:11;99467.69;;;4.93;100.00
10921;BME280;5513;50.580;8.818;2023-02-01T01:01:41;99466.81;;;4.93;100.00
10921;BME280;5513;50.580;8.818;2023-02-01T01:04:09;99456.03;;;5.00;100.00
10921;BME280;5513;50.580;8.818;2023-02-01T01:06:38;99453.47;;;4.99;100.00
10921;BME280;5513;50.580;8.818;2023-02-01T01:09:08;99459.28;;;5.07;100.00
10921;BME280;5513;50.580;8.818;2023-02-01T01:11:39;99469.66;;;5.10;100.00
10921;BME280;5513;50.580;8.818;2023-02-01T01:14:10;99461.63;;;5.14;100.00
10921;BME280;5513;50.580;8.818;2023-02-01T01:16:39;99454.44;;;5.20;100.00
10921;BME280;5513;50.580;8.818;2023-02-01T01:19:09;99456.44;;;5.13;100.00
10921;BME280;5513;50.580;8.818;2023-02-01T01:21:38;99451.19;;;5.13;100.00
10921;BME280;5513;50.580;8.818;2023-02-01T01:24:06;99456.25;;;5.17;100.00
10921;BME280;5513;50.580;8.818;2023-02-01T01:26:35;99450.28;;;5.14;100.00
10921;BME280;5513;50.580;8.818;2023-02-01T01:29:09;99449.47;;;5.12;100.00
10921;BME280;5513;50.580;8.818;2023-02-01T01:31:37;99451.19;;;5.13;100.00
10921;BME280;5513;50.580;8.818;2023-02-01T01:34:06;99443.25;;;5.14;100.00
10921;BME280;5513;50.580;8.818;2023-02-01T01:36:36;99445.03;;;5.14;100.00
10921;BME280;5513;50.580;8.818;2023-02-01T01:39:05;99449.94;;;5.23;100.00
10921;BME280;5513;50.580;8.818;2023-02-01T01:41:34;99446.53;;;5.21;100.00
10921;BME280;5513;50.580;8.818;2023-02-01T01:44:04;99447.38;;;5.22;100.00
10921;BME280;5513;50.580;8.818;2023-02-01T01:46:35;99428.94;;;5.23;100.00
10921;BME280;5513;50.580;8.818;2023-02-01T01:49:07;99420.50;;;5.37;100.00
10921;BME280;5513;50.580;8.818;2023-02-01T01:51:46;99421.06;;;5.23;100.00
10921;BME280;5513;50.580;8.818;2023-02-01T01:54:21;99409.34;;;5.32;100.00
10921;BME280;5513;50.580;8.818;2023-02-01T01:56:55;99406.59;;;5.35;100.00
10921;BME280;5513;50.580;8.818;2023-02-01T01:59:25;99412.13;;;5.27;100.00
10921;BME280;5513;50.580;8.818;2023-02-01T02:01:59;99378.13;;;5.24;100.00
10921;BME280;5513;50.580;8.818;2023-02-01T02:04:28;99408.84;;;5.22;100.00
10921;BME280;5513;50.580;8.818;2023-02-01T02:07:04;99410.47;;;5.25;100.00
10921;BME280;5513;50.580;8.818;2023-02-01T02:09:33;99405.91;;;5.30;100.00
10921;BME280;5513;50.580;8.818;2023-02-01T02:12:02;99415.59;;;5.28;100.00
10921;BME280;5513;50.580;8.818;2023-02-01T02:14:31;99423.75;;;5.22;100.00
10921;BME280;5513;50.580;8.818;2023-02-01T02:17:13;99420.75;;;5.31;100.00
10921;BME280;5513;50.580;8.818;2023-02-01T02:23:05;99416.31;;;5.33;100.00
10921;BME280;5513;50.580;8.818;2023-02-01T02:26:06;99409.56;;;5.26;100.00
10921;BME280;5513;50.580;8.818;2023-02-01T02:29:01;99404.38;;;5.24;100.00
10921;BME280;5513;50.580;8.818;2023-02-01T02:31:47;99410.00;;;5.37;100.00
10921;BME280;5513;50.580;8.818;2023-02-01T02:34:32;99390.09;;;5.31;100.00
10921;BME280;5513;50.580;8.818;2023-02-01T02:37:11;99398.72;;;5.35;100.00
10921;BME280;5513;50.580;8.818;2023-02-01T02:39:50;99410.94;;;5.36;100.00
10921;BME280;5513;50.580;8.818;2023-02-01T02:42:26;99404.88;;;5.34;100.00
10921;BME280;5513;50.580;8.818;2023-02-01T02:45:17;99400.63;;;5.31;100.00
10921;BME280;5513;50.580;8.818;2023-02-01T02:48:11;99384.00;;;5.31;100.00
10921;BME280;5513;50.580;8.818;2023-02-01T02:50:45;99380.97;;;5.40;100.00
10921;BME280;5513;50.580;8.818;2023-02-01T02:53:35;99379.53;;;5.33;100.00
10921;BME280;5513;50.580;8.818;2023-02-01T02:56:25;99371.72;;;5.53;100.00
10921;BME280;5513;50.580;8.818;2023-02-01T02:59:15;99366.47;;;5.53;100.00
10921;BME280;5513;50.580;8.818;2023-02-01T03:02:04;99363.09;;;5.50;100.00
10921;BME280;5513;50.580;8.818;2023-02-01T03:04:53;99348.13;;;5.52;100.00
10921;BME280;5513;50.580;8.818;2023-02-01T03:07:48;99345.81;;;5.44;100.00
10921;BME280;5513;50.580;8.818;2023-02-01T03:10:24;99344.28;;;5.38;100.00
10921;BME280;5513;50.580;8.818;2023-02-01T03:13:00;99355.13;;;5.31;100.00
10921;BME280;5513;50.580;8.818;2023-02-01T03:15:33;99352.09;;;5.40;100.00
10921;BME280;5513;50.580;8.818;2023-02-01T03:18:06;99354.97;;;5.34;100.00
10921;BME280;5513;50.580;8.818;2023-02-01T03:20:44;99361.66;;;5.42;100.00
10921;BME280;5513;50.580;8.818;2023-02-01T03:23:16;99347.41;;;5.26;100.00
10921;BME280;5513;50.580;8.818;2023-02-01T03:25:47;99346.97;;;5.37;100.00
10921;BME280;5513;50.580;8.818;2023-02-01T03:28:18;99336.59;;;5.34;100.00
10921;BME280;5513;50.580;8.818;2023-02-01T03:30:50;99352.91;;;5.42;100.00
10921;BME280;5513;50.580;8.818;2023-02-01T03:33:21;99341.06;;;5.54;100.00
10921;BME280;5513;50.580;8.818;2023-02-01T03:35:58;99330.06;;;5.44;100.00
10921;BME280;5513;50.580;8.818;2023-02-01T03:38:32;99319.63;;;5.42;100.00
10921;BME280;5513;50.580;8.818;2023-02-01T03:41:09;99319.97;;;5.55;100.00
10921;BME280;5513;50.580;8.818;2023-02-01T03:43:49;99320.09;;;5.52;100.00
10921;BME280;5513;50.580;8.818;2023-02-01T03:46:25;99304.72;;;5.43;100.00
10921;BME280;5513;50.580;8.818;2023-02-01T03:49:01;99311.91;;;5.38;100.00
10921;BME280;5513;50.580;8.818;2023-02-01T03:51:31;99304.50;;;5.47;100.00
10921;BME280;5513;50.580;8.818;2023-02-01T03:54:05;99316.63;;;5.52;100.00
10921;BME280;5513;50.580;8.818;2023-02-01T03:56:36;99314.91;;;5.51;100.00
10921;BME280;5513;50.580;8.818;2023-02-01T03:59:07;99312.53;;;5.44;100.00
10921;BME280;5513;50.580;8.818;2023-02-01T04:01:36;99314.72;;;5.55;100.00
10921;BME280;5513;50.580;8.818;2023-02-01T04:04:04;99318.97;;;5.58;100.00
10921;BME280;5513;50.580;8.818;2023-02-01T04:06:33;99315.28;;;5.41;100.00
10921;BME280;5513;50.580;8.818;2023-02-01T04:09:03;99322.59;;;5.55;100.00
10921;BME280;5513;50.580;8.818;2023-02-01T04:11:31;99316.94;;;5.44;100.00
10921;BME280;5513;50.580;8.818;2023-02-01T04:14:00;99311.16;;;5.56;100.00
10921;BME280;5513;50.580;8.818;2023-02-01T04:16:31;99309.69;;;5.49;100.00
10921;BME280;5513;50.580;8.818;2023-02-01T04:19:00;99311.03;;;5.59;100.00
10921;BME280;5513;50.580;8.818;2023-02-01T04:21:29;99303.28;;;5.56;100.00
10921;BME280;5513;50.580;8.818;2023-02-01T04:23:57;99325.53;;;5.69;100.00
10921;BME280;5513;50.580;8.818;2023-02-01T04:26:27;99305.34;;;5.70;100.00
10921;BME280;5513;50.580;8.818;2023-02-01T04:28:56;99312.50;;;5.66;100.00
10921;BME280;5513;50.580;8.818;2023-02-01T04:31:24;99313.16;;;5.71;100.00
10921;BME280;5513;50.580;8.818;2023-02-01T04:33:54;99305.06;;;5.56;100.00
10921;BME280;5513;50.580;8.818;2023-02-01T04:36:24;99314.56;;;5.58;100.00
10921;BME280;5513;50.580;8.818;2023-02-01T04:38:53;99297.88;;;5.59;100.00
10921;BME280;5513;50.580;8.818;2023-02-01T04:41:21;99304.38;;;5.72;100.00
10921;BME280;5513;50.580;8.818;2023-02-01T04:43:52;99309.59;;;5.52;100.00
10921;BME280;5513;50.580;8.818;2023-02-01T04:46:21;99298.81;;;5.58;100.00
10921;BME280;5513;50.580;8.818;2023-02-01T04:48:50;99303.03;;;5.62;100.00
10921;BME280;5513;50.580;8.818;2023-02-01T04:51:19;99307.63;;;5.57;100.00
10921;BME280;5513;50.580;8.818;2023-02-01T04:53:49;99305.78;;;5.59;100.00
10921;BME280;5513;50.580;8.818;2023-02-01T04:56:18;99304.44;;;5.71;100.00
10921;BME280;5513;50.580;8.818;2023-02-01T04:58:47;99310.06;;;5.62;100.00
10921;BME280;5513;50.580;8.818;2023-02-01T05:01:17;99302.03;;;5.65;100.00
10921;BME280;5513;50.580;8.818;2023-02-01T05:03:46;99301.88;;;5.69;100.00
10921;BME280;5513;50.580;8.818;2023-02-01T05:06:14;99309.69;;;5.71;100.00
10921;BME280;5513;50.580;8.818;2023-02-01T05:08:43;99295.72;;;5.69;100.00
10921;BME280;5513;50.580;8.818;2023-02-01T05:11:11;99284.25;;;5.51;100.00
10921;BME280;5513;50.580;8.818;2023-02-01T05:14:12;99277.63;;;5.63;100.00
10921;BME280;5513;50.580;8.818;2023-02-01T05:16:42;99270.38;;;5.47;100.00
10921;BME280;5513;50.580;8.818;2023-02-01T05:19:11;99273.38;;;5.38;100.00
10921;BME280;5513;50.580;8.818;2023-02-01T05:21:39;99274.91;;;5.44;100.00
10921;BME280;5513;50.580;8.818;2023-02-01T05:24:08;99266.16;;;5.43;100.00
10921;BME280;5513;50.580;8.818;2023-02-01T05:26:40;99265.09;;;5.47;100.00
10921;BME280;5513;50.580;8.818;2023-02-01T05:29:10;99268.69;;;5.25;100.00
10921;BME280;5513;50.580;8.818;2023-02-01T05:31:38;99267.31;;;5.36;100.00
10921;BME280;5513;50.580;8.818;2023-02-01T05:34:11;99276.97;;;5.36;100.00
10921;BME280;5513;50.580;8.818;2023-02-01T05:36:39;99267.25;;;5.38;100.00
10921;BME280;5513;50.580;8.818;2023-02-01T05:39:12;99277.91;;;5.35;100.00
10921;BME280;5513;50.580;8.818;2023-02-01T05:41:41;99274.59;;;5.30;100.00
10921;BME280;5513;50.580;8.818;2023-02-01T05:44:10;99280.53;;;5.35;100.00
10921;BME280;5513;50.580;8.818;2023-02-01T05:46:40;99282.00;;;5.42;100.00
10921;BME280;5513;50.580;8.818;2023-02-01T05:49:10;99272.13;;;5.47;100.00
10921;BME280;5513;50.580;8.818;2023-02-01T05:51:38;99266.72;;;5.52;100.00
10921;BME280;5513;50.580;8.818;2023-02-01T05:54:08;99272.91;;;5.49;100.00
10921;BME280;5513;50.580;8.818;2023-02-01T05:56:38;99266.34;;;5.39;100.00
10921;BME280;5513;50.580;8.818;2023-02-01T05:59:08;99268.75;;;5.23;100.00
10921;BME280;5513;50.580;8.818;2023-02-01T06:01:42;99279.59;;;5.36;100.00
10921;BME280;5513;50.580;8.818;2023-02-01T06:04:12;99275.28;;;5.35;100.00
10921;BME280;5513;50.580;8.818;2023-02-01T06:06:43;99282.09;;;5.39;100.00
10921;BME280;5513;50.580;8.818;2023-02-01T06:09:11;99285.06;;;5.31;100.00
10921;BME280;5513;50.580;8.818;2023-02-01T06:11:39;99280.91;;;5.26;100.00
10921;BME280;5513;50.580;8.818;2023-02-01T06:14:08;99284.84;;;5.36;100.00
10921;BME280;5513;50.580;8.818;2023-02-01T06:16:36;99276.84;;;5.39;100.00
10921;BME280;5513;50.580;8.818;2023-02-01T06:19:06;99272.50;;;5.38;100.00
10921;BME280;5513;50.580;8.818;2023-02-01T06:21:37;99277.69;;;5.39;100.00
10921;BME280;5513;50.580;8.818;2023-02-01T06:24:08;99272.22;;;5.45;100.00
10921;BME280;5513;50.580;8.818;2023-02-01T06:26:37;99276.44;;;5.28;100.00
10921;BME280;5513;50.580;8.818;2023-02-01T06:29:09;99275.50;;;5.29;100.00
10921;BME280;5513;50.580;8.818;2023-02-01T06:31:38;99261.59;;;5.27;100.00
10921;BME280;5513;50.580;8.818;2023-02-01T06:34:11;99259.91;;;5.26;100.00
10921;BME280;5513;50.580;8.818;2023-02-01T06:36:41;99263.97;;;5.33;100.00
10921;BME280;5513;50.580;8.818;2023-02-01T06:39:11;99267.41;;;5.13;100.00
10921;BME280;5513;50.580;8.818;2023-02-01T06:41:42;99272.81;;;5.30;100.00
10921;BME280;5513;50.580;8.818;2023-02-01T06:44:11;99268.13;;;5.16;100.00
10921;BME280;5513;50.580;8.818;2023-02-01T06:46:45;99266.72;;;5.30;100.00
10921;BME280;5513;50.580;8.818;2023-02-01T06:49:14;99254.25;;;5.35;100.00
10921;BME280;5513;50.580;8.818;2023-02-01T06:51:48;99259.75;;;5.29;100.00
10921;BME280;5513;50.580;8.818;2023-02-01T06:54:16;99244.22;;;5.24;100.00
10921;BME280;5513;50.580;8.818;2023-02-01T06:56:47;99257.53;;;5.40;100.00
10921;BME280;5513;50.580;8.818;2023-02-01T06:59:15;99256.81;;;5.36;100.00
10921;BME280;5513;50.580;8.818;2023-02-01T07:01:44;99254.13;;;5.38;100.00
10921;BME280;5513;50.580;8.818;2023-02-01T07:04:12;99259.75;;;5.51;100.00
10921;BME280;5513;50.580;8.818;2023-02-01T07:06:40;99262.31;;;5.52;100.00
10921;BME280;5513;50.580;8.818;2023-02-01T07:09:10;99262.75;;;5.41;100.00
10921;BME280;5513;50.580;8.818;2023-02-01T07:11:38;99262.56;;;5.46;100.00
10921;BME280;5513;50.580;8.818;2023-02-01T07:14:10;99289.59;;;5.48;100.00
10921;BME280;5513;50.580;8.818;2023-02-01T07:16:38;99275.06;;;5.39;100.00
10921;BME280;5513;50.580;8.818;2023-02-01T07:19:07;99251.44;;;5.39;100.00
10921;BME280;5513;50.580;8.818;2023-02-01T07:21:35;99266.94;;;5.45;100.00
10921;BME280;5513;50.580;8.818;2023-02-01T07:24:04;99264.53;;;5.41;100.00
10921;BME280;5513;50.580;8.818;2023-02-01T07:26:34;99263.47;;;5.45;100.00
10921;BME280;5513;50.580;8.818;2023-02-01T07:29:03;99268.56;;;5.28;100.00
10921;BME280;5513;50.580;8.818;2023-02-01T07:31:32;99271.50;;;5.42;100.00
10921;BME280;5513;50.580;8.818;2023-02-01T07:34:02;99276.97;;;5.36;100.00
10921;BME280;5513;50.580;8.818;2023-02-01T07:36:31;99279.53;;;5.37;100.00
10921;BME280;5513;50.580;8.818;2023-02-01T07:39:00;99276.84;;;5.39;100.00
10921;BME280;5513;50.580;8.818;2023-02-01T07:41:29;99287.81;;;5.49;100.00
10921;BME280;5513;50.580;8.818;2023-02-01T07:43:59;99279.91;;;5.50;100.00
10921;BME280;5513;50.580;8.818;2023-02-01T07:46:28;99271.16;;;5.50;100.00
10921;BME280;5513;50.580;8.818;2023-02-01T07:48:56;99263.09;;;5.54;100.00
10921;BME280;5513;50.580;8.818;2023-02-01T07:51:24;99280.41;;;5.58;100.00
10921;BME280;5513;50.580;8.818;2023-02-01T07:53:53;99289.44;;;5.53;100.00
10921;BME280;5513;50.580;8.818;2023-02-01T07:56:25;99276.03;;;5.59;100.00
10921;BME280;5513;50.580;8.818;2023-02-01T07:58:54;99279.50;;;5.59;100.00
10921;BME280;5513;50.580;8.818;2023-02-01T08:01:25;99273.06;;;5.66;100.00
10921;BME280;5513;50.580;8.818;2023-02-01T08:03:56;99284.25;;;5.71;100.00
10921;BME280;5513;50.580;8.818;2023-02-01T08:06:27;99292.25;;;5.68;100.00
10921;BME280;5513;50.580;8.818;2023-02-01T08:08:56;99287.22;;;5.64;100.00
10921;BME280;5513;50.580;8.818;2023-02-01T08:11:25;99299.75;;;5.78;100.00
10921;BME280;5513;50.580;8.818;2023-02-01T08:13:54;99321.97;;;5.70;100.00
10921;BME280;5513;50.580;8.818;2023-02-01T08:16:24;99305.16;;;5.74;100.00
10921;BME280;5513;50.580;8.818;2023-02-01T08:18:52;99318.97;;;5.80;100.00
10921;BME280;5513;50.580;8.818;2023-02-01T08:21:23;99297.19;;;5.76;100.00
10921;BME280;5513;50.580;8.818;2023-02-01T08:23:52;99305.75;;;5.81;100.00
10921;BME280;5513;50.580;8.818;2023-02-01T08:26:22;99308.25;;;5.84;100.00
10921;BME280;5513;50.580;8.818;2023-02-01T08:28:52;99311.78;;;5.83;100.00
10921;BME280;5513;50.580;8.818;2023-02-01T08:31:24;99319.44;;;5.89;100.00
10921;BME280;5513;50.580;8.818;2023-02-01T08:33:55;99322.22;;;5.85;100.00
10921;BME280;5513;50.580;8.818;2023-02-01T08:36:24;99315.00;;;5.91;100.00
10921;BME280;5513;50.580;8.818;2023-02-01T08:38:53;99325.19;;;5.77;100.00
10921;BME280;5513;50.580;8.818;2023-02-01T08:41:23;99325.38;;;5.72;100.00
10921;BME280;5513;50.580;8.818;2023-02-01T08:43:52;99320.31;;;5.88;100.00
10921;BME280;5513;50.580;8.818;2023-02-01T08:46:26;99328.47;;;5.82;100.00
10921;BME280;5513;50.580;8.818;2023-02-01T08:48:55;99330.84;;;5.88;100.00
10921;BME280;5513;50.580;8.818;2023-02-01T08:51:24;99340.47;;;5.89;100.00
10921;BME280;5513;50.580;8.818;2023-02-01T08:53:52;99324.31;;;5.77;100.00
10921;BME280;5513;50.580;8.818;2023-02-01T08:56:21;99326.47;;;5.89;100.00
10921;BME280;5513;50.580;8.818;2023-02-01T08:58:50;99321.16;;;5.90;100.00
10921;BME280;5513;50.580;8.818;2023-02-01T09:01:18;99327.28;;;5.91;100.00
10921;BME280;5513;50.580;8.818;2023-02-01T09:03:51;99320.63;;;6.02;100.00
10921;BME280;5513;50.580;8.818;2023-02-01T09:06:19;99331.28;;;5.99;100.00
10921;BME280;5513;50.580;8.818;2023-02-01T09:08:48;99336.44;;;5.81;100.00
10921;BME280;5513;50.580;8.818;2023-02-01T09:11:17;99334.84;;;5.98;100.00
10921;BME280;5513;50.580;8.818;2023-02-01T09:13:47;99327.84;;;5.97;100.00
10921;BME280;5513;50.580;8.818;2023-02-01T09:16:16;99332.06;;;6.01;100.00
10921;BME280;5513;50.580;8.818;2023-02-01T09:18:45;99336.81;;;5.93;100.00
10921;BME280;5513;50.580;8.818;2023-02-01T09:21:34;99346.94;;;6.02;100.00
10921;BME280;5513;50.580;8.818;2023-02-01T09:24:04;99337.25;;;6.03;100.00
10921;BME280;5513;50.580;8.818;2023-02-01T09:26:33;99346.59;;;6.10;100.00
10921;BME280;5513;50.580;8.818;2023-02-01T09:29:02;99355.91;;;5.97;100.00
10921;BME280;5513;50.580;8.818;2023-02-01T09:31:33;99357.38;;;6.04;100.00
10921;BME280;5513;50.580;8.818;2023-02-01T09:34:11;99368.28;;;5.95;100.00
10921;BME280;5513;50.580;8.818;2023-02-01T09:36:40;99360.72;;;6.08;100.00
10921;BME280;5513;50.580;8.818;2023-02-01T09:39:09;99365.00;;;6.10;100.00
10921;BME280;5513;50.580;8.818;2023-02-01T09:41:45;99367.34;;;5.96;100.00
10921;BME280;5513;50.580;8.818;2023-02-01T09:44:25;99360.84;;;6.05;100.00
10921;BME280;5513;50.580;8.818;2023-02-01T09:47:12;99350.56;;;6.00;100.00
10921;BME280;5513;50.580;8.818;2023-02-01T09:49:49;99383.59;;;6.06;100.00
10921;BME280;5513;50.580;8.818;2023-02-01T09:52:25;99368.81;;;6.03;100.00
10921;BME280;5513;50.580;8.818;2023-02-01T09:54:59;99363.75;;;5.98;100.00
10921;BME280;5513;50.580;8.818;2023-02-01T09:57:40;99372.69;;;5.94;100.00
10921;BME280;5513;50.580;8.818;2023-02-01T10:00:19;99370.72;;;5.99;100.00
10921;BME280;5513;50.580;8.818;2023-02-01T10:02:49;99392.13;;;5.90;100.00
10921;BME280;5513;50.580;8.818;2023-02-01T10:05:27;99363.94;;;5.94;100.00
10921;BME280;5513;50.580;8.818;2023-02-01T10:08:04;99359.59;;;5.93;100.00
10921;BME280;5513;50.580;8.818;2023-02-01T10:10:40;99354.28;;;5.94;100.00
10921;BME280;5513;50.580;8.818;2023-02-01T10:13:31;99359.94;;;6.06;100.00
10921;BME280;5513;50.580;8.818;2023-02-01T10:16:15;99357.22;;;6.07;100.00
10921;BME280;5513;50.580;8.818;2023-02-01T10:18:54;99351.47;;;5.99;100.00
10921;BME280;5513;50.580;8.818;2023-02-01T10:21:36;99330.94;;;6.07;100.00
10921;BME280;5513;50.580;8.818;2023-02-01T10:24:37;99335.50;;;6.03;100.00
10921;BME280;5513;50.580;8.818;2023-02-01T10:27:17;99337.78;;;6.11;100.00
10921;BME280;5513;50.580;8.818;2023-02-01T10:29:51;99334.09;;;6.15;100.00
10921;BME280;5513;50.580;8.818;2023-02-01T10:32:24;99329.59;;;6.19;100.00
10921;BME280;5513;50.580;8.818;2023-02-01T10:34:58;99339.28;;;6.17;100.00
10921;BME280;5513;50.580;8.818;2023-02-01T10:37:31;99331.22;;;6.01;100.00
10921;BME280;5513;50.580;8.818;2023-02-01T10:40:15;99326.50;;;6.09;100.00
10921;BME280;5513;50.580;8.818;2023-02-01T10:42:44;99332.00;;;6.03;100.00
10921;BME280;5513;50.580;8.818;2023-02-01T10:45:15;99341.41;;;6.09;100.00
10921;BME280;5513;50.580;8.818;2023-02-01T10:47:45;99343.53;;;6.00;100.00
10921;BME280;5513;50.580;8.818;2023-02-01T10:50:21;99329.84;;;5.92;100.00
10921;BME280;5513;50.580;8.818;2023-02-01T10:52:58;99323.94;;;5.86;100.00
10921;BME280;5513;50.580;8.818;2023-02-01T10:55:34;99335.94;;;6.13;100.00
10921;BME280;5513;50.580;8.818;2023-02-01T10:58:13;99339.44;;;6.14;100.00
10921;BME280;5513;50.580;8.818;2023-02-01T11:00:45;99359.59;;;5.93;100.00
10921;BME280;5513;50.580;8.818;2023-02-01T11:03:30;99343.66;;;6.18;100.00
10921;BME280;5513;50.580;8.818;2023-02-01T11:06:01;99335.34;;;6.07;100.00
10921;BME280;5513;50.580;8.818;2023-02-01T11:08:30;99326.53;;;6.08;100.00
10921;BME280;5513;50.580;8.818;2023-02-01T11:11:03;99320.56;;;6.24;100.00
10921;BME280;5513;50.580;8.818;2023-02-01T11:13:37;99316.69;;;6.13;100.00
10921;BME280;5513;50.580;8.818;2023-02-01T11:16:08;99311.81;;;6.24;100.00
10921;BME280;5513;50.580;8.818;2023-02-01T11:18:38;99303.16;;;6.22;100.00
10921;BME280;5513;50.580;8.818;2023-02-01T11:21:08;99306.16;;;6.13;100.00
10921;BME280;5513;50.580;8.818;2023-02-01T11:23:42;99311.16;;;6.19;100.00
10921;BME280;5513;50.580;8.818;2023-02-01T11:26:21;99303.66;;;6.30;100.00
10921;BME280;5513;50.580;8.818;2023-02-01T11:28:54;99301.09;;;6.28;100.00
10921;BME280;5513;50.580;8.818;2023-02-01T11:31:26;99307.75;;;6.37;100.00
10921;BME280;5513;50.580;8.818;2023-02-01T11:33:59;99309.00;;;6.28;100.00
10921;BME280;5513;50.580;8.818;2023-02-01T11:36:30;99297.75;;;6.25;100.00
10921;BME280;5513;50.580;8.818;2023-02-01T11:39:10;99297.66;;;6.26;100.00
10921;BME280;5513;50.580;8.818;2023-02-01T11:41:44;99293.00;;;6.33;100.00
10921;BME280;5513;50.580;8.818;2023-02-01T11:44:30;99289.53;;;6.12;100.00
10921;BME280;5513;50.580;8.818;2023-02-01T11:47:26;99286.03;;;6.32;100.00
10921;BME280;5513;50.580;8.818;2023-02-01T11:49:57;99276.91;;;6.20;100.00
10921;BME280;5513;50.580;8.818;2023-02-01T11:52:39;99292.53;;;6.23;100.00
10921;BME280;5513;50.580;8.818;2023-02-01T11:55:18;99285.81;;;6.18;100.00
10921;BME280;5513;50.580;8.818;2023-02-01T11:58:06;99278.00;;;6.35;100.00
10921;BME280;5513;50.580;8.818;2023-02-01T12:00:54;99281.78;;;6.29;100.00
10921;BME280;5513;50.580;8.818;2023-02-01T12:04:07;99283.63;;;6.27;100.00
10921;BME280;5513;50.580;8.818;2023-02-01T12:06:48;99266.50;;;6.17;100.00
10921;BME280;5513;50.580;8.818;2023-02-01T12:09:38;99273.72;;;6.32;100.00
10921;BME280;5513;50.580;8.818;2023-02-01T12:12:16;99274.16;;;6.42;100.00
10921;BME280;5513;50.580;8.818;2023-02-01T12:15:05;99264.22;;;6.49;100.00
10921;BME280;5513;50.580;8.818;2023-02-01T12:18:02;99278.34;;;6.46;100.00
10921;BME280;5513;50.580;8.818;2023-02-01T12:23:46;99263.66;;;6.42;100.00
10921;BME280;5513;50.580;8.818;2023-02-01T12:26:38;99261.88;;;6.62;100.00
10921;BME280;5513;50.580;8.818;2023-02-01T12:29:18;99269.84;;;6.60;100.00
10921;BME280;5513;50.580;8.818;2023-02-01T12:32:11;99268.00;;;6.62;100.00
10921;BME280;5513;50.580;8.818;2023-02-01T12:34:55;99251.50;;;6.58;100.00
10921;BME280;5513;50.580;8.818;2023-02-01T12:37:39;99264.50;;;6.80;100.00
10921;BME280;5513;50.580;8.818;2023-02-01T12:40:20;99243.09;;;6.69;100.00
10921;BME280;5513;50.580;8.818;2023-02-01T12:42:58;99251.94;;;6.68;100.00
10921;BME280;5513;50.580;8.818;2023-02-01T12:45:31;99242.81;;;6.75;100.00
10921;BME280;5513;50.580;8.818;2023-02-01T12:48:15;99236.97;;;6.87;100.00
10921;BME280;5513;50.580;8.818;2023-02-01T12:50:50;99233.50;;;6.68;100.00
10921;BME280;5513;50.580;8.818;2023-02-01T12:53:24;99236.47;;;6.79;100.00
10921;BME280;5513;50.580;8.818;2023-02-01T12:55:55;99216.25;;;6.99;100.00
10921;BME280;5513;50.580;8.818;2023-02-01T12:58:27;99226.22;;;6.92;100.00
10921;BME280;5513;50.580;8.818;2023-02-01T13:01:05;99218.22;;;6.94;100.00
10921;BME280;5513;50.580;8.818;2023-02-01T13:03:39;99213.84;;;7.11;100.00
10921;BME280;5513;50.580;8.818;2023-02-01T13:06:12;99220.44;;;7.03;100.00
10921;BME280;5513;50.580;8.818;2023-02-01T13:08:45;99212.91;;;6.95;100.00
10921;BME280;5513;50.580;8.818;2023-02-01T13:11:17;99218.97;;;6.97;100.00
10921;BME280;5513;50.580;8.818;2023-02-01T13:13:54;99209.88;;;7.03;100.00
10921;BME280;5513;50.580;8.818;2023-02-01T13:16:26;99200.16;;;7.05;100.00
10921;BME280;5513;50.580;8.818;2023-02-01T13:19:03;99201.78;;;7.07;100.00
10921;BME280;5513;50.580;8.818;2023-02-01T13:21:35;99200.59;;;7.13;100.00
10921;BME280;5513;50.580;8.818;2023-02-01T13:24:19;99189.84;;;7.00;100.00
10921;BME280;5513;50.580;8.818;2023-02-01T13:26:53;99181.97;;;7.17;100.00
10921;BME280;5513;50.580;8.818;2023-02-01T13:29:23;99197.47;;;7.41;100.00
10921;BME280;5513;50.580;8.818;2023-02-01T13:32:04;99181.19;;;7.33;100.00
10921;BME280;5513;50.580;8.818;2023-02-01T13:34:53;99187.16;;;7.54;100.00
10921;BME280;5513;50.580;8.818;2023-02-01T13:40:36;99179.88;;;7.24;100.00
10921;BME280;5513;50.580;8.818;2023-02-01T13:43:08;99170.41;;;7.37;100.00
10921;BME280;5513;50.580;8.818;2023-02-01T13:45:44;99169.75;;;7.34;100.00
10921;BME280;5513;50.580;8.818;2023-02-01T13:48:23;99170.50;;;7.36;100.00
10921;BME280;5513;50.580;8.818;2023-02-01T13:50:56;99175.06;;;7.32;100.00
10921;BME280;5513;50.580;8.818;2023-02-01T13:53:29;99165.31;;;7.17;100.00